Hartman, Arkansas
Current Conditions -  °F | °C
As of 8:53 AM on Friday 19 Dec 2014 (Local Time) from KRUE Reporting Station
Haze Haze  
Wind Chill: 42°   Ceiling: 1200
Heat Index: 42°   Visibility: 5mi
Dew Point: 38°   Wind: 0mph
Humidity: 85%   Direction: NA
Pressure: 30.27"   Gusts: NA
Location:  35.43°N, 93.62°W
Report Text: KRUE 191453Z AUTO 00000KT 5SM BR OVC012 06/03 A3027 RMK AO2 SLP247 T00560033 51013
Loading
Personal Weather Stations






























Interactive Weather Map New forecast layout! Learn more

10-Day Weather Forecast

Advertisements
Track Severe Weather on mobile